Mooresville, Texas
Current Conditions -  °F | °C
As of 4:55 AM on Sunday 23 Nov 2014 (Local Time) from KPWG Reporting Station
Broken Clouds Broken Clouds  
Wind Chill: 55°   Ceiling: 1200
Heat Index: 55°   Visibility: 10mi
Dew Point: 50°   Wind: 3mph
Humidity: 82%   Direction: 230°SW
Pressure: 29.65"   Gusts: NA
Location:  31.2985°N, 97.112°W
Report Text: KPWG 231055Z AUTO 23003KT 10SM BKN012 13/10 A2965 RMK AO1
Loading
Personal Weather Stations






























Interactive Weather Map New forecast layout! Learn more

10-Day Weather Forecast

Advertisements
Track Severe Weather on mobile